createdAt,value
2023-04-22T00:00:34.708Z,10.06
2023-04-22T00:01:34.746Z,9.68
2023-04-22T00:02:34.868Z,10.01
2023-04-22T00:03:35.030Z,9.69
2023-04-22T00:04:34.910Z,9.75
2023-04-22T00:05:34.944Z,9.58
2023-04-22T00:06:34.853Z,9.60
2023-04-22T00:07:35.040Z,9.44
2023-04-22T00:08:34.915Z,9.51
2023-04-22T00:09:35.041Z,9.71
2023-04-22T00:10:35.017Z,9.67
2023-04-22T00:11:34.980Z,9.51
2023-04-22T00:12:34.993Z,9.22
2023-04-22T00:13:35.035Z,9.23
2023-04-22T00:14:35.053Z,9.42
2023-04-22T00:15:35.104Z,9.34
2023-04-22T00:16:35.171Z,9.09
2023-04-22T00:17:35.186Z,9.18
2023-04-22T00:18:35.176Z,9.09
2023-04-22T00:19:35.273Z,9.03
2023-04-22T00:20:35.194Z,9.19
2023-04-22T00:21:35.219Z,9.20
2023-04-22T00:22:35.273Z,8.97
2023-04-22T00:23:35.286Z,8.98
2023-04-22T00:24:35.314Z,9.16
2023-04-22T00:25:35.379Z,8.96
2023-04-22T00:26:35.354Z,8.95
2023-04-22T00:27:35.428Z,8.97
2023-04-22T00:28:35.494Z,8.97
2023-04-22T00:29:35.504Z,8.96
2023-04-22T00:30:35.481Z,9.02
2023-04-22T00:31:35.572Z,9.03
2023-04-22T00:32:35.572Z,8.69
2023-04-22T00:33:35.580Z,8.77
2023-04-22T00:34:35.660Z,8.85
2023-04-22T00:35:35.664Z,8.82
2023-04-22T00:36:35.670Z,8.83
2023-04-22T00:37:35.724Z,8.63
2023-04-22T00:38:35.785Z,8.73
2023-04-22T00:39:35.789Z,8.62
2023-04-22T00:40:35.846Z,8.68
2023-04-22T00:41:35.816Z,8.45
2023-04-22T00:42:35.874Z,8.51
2023-04-22T00:43:35.870Z,8.42
2023-04-22T00:44:35.902Z,8.57
2023-04-22T00:45:35.962Z,8.50
2023-04-22T00:46:35.951Z,8.40
2023-04-22T00:47:35.986Z,8.29
2023-04-22T00:48:36.015Z,8.39
2023-04-22T00:49:36.045Z,8.45
2023-04-22T00:50:36.049Z,8.46
2023-04-22T00:51:36.074Z,8.25
2023-04-22T00:52:36.118Z,8.21
2023-04-22T00:53:36.192Z,8.24
2023-04-22T00:54:36.164Z,8.08
2023-04-22T00:55:36.225Z,8.45
2023-04-22T00:56:36.245Z,8.26
2023-04-22T00:57:36.245Z,8.32
2023-04-22T00:58:36.379Z,8.22
2023-04-22T00:59:36.345Z,8.20
2023-04-22T01:00:36.422Z,8.18
2023-04-22T01:01:36.401Z,8.14
2023-04-22T01:02:36.529Z,8.23
2023-04-22T01:03:36.596Z,8.05
2023-04-22T01:04:36.505Z,8.02
2023-04-22T01:05:36.543Z,8.02
2023-04-22T01:06:36.524Z,7.92
2023-04-22T01:07:36.604Z,8.04
2023-04-22T01:08:36.596Z,7.95
2023-04-22T01:09:36.688Z,7.96
2023-04-22T01:10:36.726Z,8.00
2023-04-22T01:11:36.711Z,7.82
2023-04-22T01:12:36.727Z,7.89
2023-04-22T01:13:36.760Z,7.77
2023-04-22T01:14:36.830Z,7.92
2023-04-22T01:15:36.860Z,7.87
2023-04-22T01:16:36.923Z,7.94
2023-04-22T01:17:36.984Z,7.83
2023-04-22T01:18:36.922Z,7.81
2023-04-22T01:19:37.253Z,7.79
2023-04-22T01:20:37.019Z,7.51
2023-04-22T01:21:37.009Z,7.58
2023-04-22T01:22:37.098Z,7.55
2023-04-22T01:23:37.078Z,7.59
2023-04-22T01:24:37.128Z,7.60
2023-04-22T01:25:37.186Z,7.79
2023-04-22T01:26:37.196Z,7.49
2023-04-22T01:27:37.234Z,7.65
2023-04-22T01:28:37.276Z,7.60
2023-04-22T01:29:37.601Z,7.64
2023-04-22T01:30:37.333Z,7.55
2023-04-22T01:31:37.430Z,7.48
2023-04-22T01:32:37.410Z,7.44
2023-04-22T01:33:37.410Z,7.54
2023-04-22T01:34:37.427Z,7.51
2023-04-22T01:35:37.428Z,7.38
2023-04-22T01:36:37.459Z,7.41
2023-04-22T01:37:37.481Z,7.32
2023-04-22T01:38:37.557Z,7.29
2023-04-22T01:39:37.878Z,7.34
2023-04-22T01:40:37.603Z,7.35
2023-04-22T01:41:37.600Z,7.33
2023-04-22T01:42:37.664Z,7.18
2023-04-22T01:43:37.668Z,7.26
2023-04-22T01:44:37.722Z,7.24
2023-04-22T01:45:37.785Z,7.31
2023-04-22T01:46:37.875Z,7.17
2023-04-22T01:47:37.813Z,7.18
2023-04-22T01:48:37.798Z,7.08
2023-04-22T01:49:38.156Z,7.18
2023-04-22T01:50:37.869Z,6.92
2023-04-22T01:51:37.918Z,7.00
2023-04-22T01:52:37.899Z,7.18
2023-04-22T01:53:37.965Z,7.07
2023-04-22T01:54:37.992Z,7.11
2023-04-22T01:55:38.006Z,7.15
2023-04-22T01:56:38.007Z,7.09
2023-04-22T01:57:38.119Z,6.99
2023-04-22T01:58:38.086Z,7.02
2023-04-22T01:59:38.404Z,6.93
2023-04-22T02:00:38.155Z,7.13
2023-04-22T02:01:38.176Z,6.93
2023-04-22T02:02:38.383Z,6.89
2023-04-22T02:03:38.401Z,6.86
2023-04-22T02:04:38.275Z,7.01
2023-04-22T02:05:38.302Z,6.94
2023-04-22T02:06:38.306Z,6.82
2023-04-22T02:07:38.366Z,6.87
2023-04-22T02:08:38.464Z,6.77
2023-04-22T02:09:38.690Z,6.73
2023-04-22T02:10:38.464Z,6.77
2023-04-22T02:11:38.476Z,6.70
2023-04-22T02:12:38.509Z,6.70
2023-04-22T02:13:38.574Z,6.71
2023-04-22T02:14:38.585Z,6.64
2023-04-22T02:15:38.618Z,6.67
2023-04-22T02:16:38.631Z,6.74
2023-04-22T02:17:38.660Z,6.60
2023-04-22T02:18:38.694Z,6.49
2023-04-22T02:19:39.189Z,6.58
2023-04-22T02:20:38.766Z,6.62
2023-04-22T02:21:38.817Z,6.55
2023-04-22T02:22:38.803Z,6.51
2023-04-22T02:23:38.872Z,6.67
2023-04-22T02:24:38.955Z,6.48
2023-04-22T02:25:38.938Z,6.46
2023-04-22T02:26:38.973Z,6.34
2023-04-22T02:27:38.997Z,6.47
2023-04-22T02:28:39.050Z,6.44
2023-04-22T02:29:39.301Z,6.36
2023-04-22T02:30:39.108Z,6.46
2023-04-22T02:31:39.188Z,6.38
2023-04-22T02:32:39.186Z,6.33
2023-04-22T02:33:39.270Z,6.41
2023-04-22T02:34:39.242Z,6.33
2023-04-22T02:35:39.277Z,6.31
2023-04-22T02:36:39.357Z,6.25
2023-04-22T02:37:39.405Z,6.29
2023-04-22T02:38:39.446Z,6.22
2023-04-22T02:39:39.573Z,6.29
2023-04-22T02:40:39.505Z,6.20
2023-04-22T02:41:39.539Z,6.27
2023-04-22T02:42:39.582Z,6.26
2023-04-22T02:43:39.627Z,6.19
2023-04-22T02:44:39.670Z,6.27
2023-04-22T02:45:39.716Z,6.19
2023-04-22T02:46:39.787Z,6.19
2023-04-22T02:47:39.804Z,6.05
2023-04-22T02:48:39.820Z,6.03
2023-04-22T02:49:40.148Z,6.08
2023-04-22T02:50:39.875Z,6.04
2023-04-22T02:51:39.916Z,6.13
2023-04-22T02:52:39.950Z,6.05
2023-04-22T02:53:40.000Z,6.10
2023-04-22T02:54:39.996Z,5.94
2023-04-22T02:55:40.090Z,6.02
2023-04-22T02:56:40.082Z,5.99
2023-04-22T02:57:40.158Z,5.88
2023-04-22T02:58:40.175Z,5.93
2023-04-22T02:59:40.559Z,5.94
2023-04-22T03:00:40.329Z,5.90
2023-04-22T03:01:40.294Z,5.91
2023-04-22T03:02:40.471Z,5.85
2023-04-22T03:03:40.539Z,5.86
2023-04-22T03:04:40.489Z,5.97
2023-04-22T03:05:40.470Z,5.84
2023-04-22T03:06:40.467Z,5.98
2023-04-22T03:07:40.519Z,5.86
2023-04-22T03:08:40.545Z,5.76
2023-04-22T03:09:41.093Z,5.77
2023-04-22T03:10:40.646Z,5.80
2023-04-22T03:11:40.658Z,5.77
2023-04-22T03:12:40.702Z,5.69
2023-04-22T03:13:40.719Z,5.68
2023-04-22T03:14:40.754Z,5.71
2023-04-22T03:15:40.817Z,5.72
2023-04-22T03:16:40.864Z,5.78
2023-04-22T03:17:40.856Z,5.74
2023-04-22T03:18:40.892Z,5.77
2023-04-22T03:19:41.208Z,5.75
2023-04-22T03:20:41.011Z,5.68
2023-04-22T03:21:41.007Z,5.68
2023-04-22T03:22:41.086Z,5.68
2023-04-22T03:23:41.115Z,5.62
2023-04-22T03:24:41.131Z,5.67
2023-04-22T03:25:41.158Z,5.57
2023-04-22T03:26:41.245Z,5.51
2023-04-22T03:27:41.283Z,5.50
2023-04-22T03:28:41.312Z,5.57
2023-04-22T03:29:41.685Z,5.55
2023-04-22T03:30:41.412Z,5.43
2023-04-22T03:31:41.471Z,5.54
2023-04-22T03:32:41.494Z,5.49
2023-04-22T03:33:41.535Z,5.55
2023-04-22T03:34:41.590Z,5.48
2023-04-22T03:35:41.625Z,5.44
2023-04-22T03:36:41.643Z,5.55
2023-04-22T03:37:41.684Z,5.45
2023-04-22T03:38:41.746Z,5.54
2023-04-22T03:39:41.942Z,5.43
2023-04-22T03:40:41.830Z,5.47
2023-04-22T03:41:41.859Z,5.40
2023-04-22T03:42:41.873Z,5.33
2023-04-22T03:43:41.964Z,5.34
2023-04-22T03:44:41.959Z,5.22
2023-04-22T03:45:42.034Z,5.24
2023-04-22T03:46:42.027Z,5.24
2023-04-22T03:47:42.144Z,5.32
2023-04-22T03:48:42.134Z,5.25
2023-04-22T03:49:42.409Z,5.22
2023-04-22T03:50:42.190Z,5.16
2023-04-22T03:51:42.245Z,5.20
2023-04-22T03:52:42.280Z,5.21
2023-04-22T03:53:42.421Z,5.25
2023-04-22T03:54:42.387Z,5.20
2023-04-22T03:55:42.482Z,5.21
2023-04-22T03:56:42.458Z,5.08
2023-04-22T03:57:42.520Z,5.17
2023-04-22T03:58:42.554Z,5.06
2023-04-22T03:59:42.842Z,5.08
2023-04-22T04:00:42.616Z,5.12
2023-04-22T04:01:42.673Z,5.15
2023-04-22T04:02:42.868Z,5.01
2023-04-22T04:03:43.057Z,4.95
2023-04-22T04:04:43.097Z,5.09
2023-04-22T04:05:42.875Z,5.13
2023-04-22T04:06:42.869Z,5.06
2023-04-22T04:07:42.874Z,4.97
2023-04-22T04:08:42.987Z,4.93
2023-04-22T04:09:43.015Z,4.99
2023-04-22T04:10:42.994Z,4.94
2023-04-22T04:11:43.009Z,4.98
2023-04-22T04:12:43.050Z,5.09
2023-04-22T04:13:43.113Z,4.94
2023-04-22T04:14:43.142Z,4.91
2023-04-22T04:15:43.237Z,4.94
2023-04-22T04:16:43.232Z,4.89
2023-04-22T04:17:43.280Z,4.85
2023-04-22T04:18:43.314Z,4.96
2023-04-22T04:19:43.433Z,4.90
2023-04-22T04:20:43.428Z,4.86
2023-04-22T04:21:43.483Z,4.85
2023-04-22T04:22:43.539Z,4.86
2023-04-22T04:23:43.534Z,4.80
2023-04-22T04:24:43.609Z,4.79
2023-04-22T04:25:43.633Z,4.86
2023-04-22T04:26:43.686Z,4.83
2023-04-22T04:27:43.757Z,4.87
2023-04-22T04:28:43.789Z,4.78
2023-04-22T04:29:43.805Z,4.78
2023-04-22T04:30:43.885Z,4.79
2023-04-22T04:31:44.022Z,4.88
2023-04-22T04:32:43.959Z,4.76
2023-04-22T04:33:43.994Z,4.83
2023-04-22T04:34:44.043Z,4.80
2023-04-22T04:35:44.125Z,4.75
2023-04-22T04:36:44.118Z,4.77
2023-04-22T04:37:44.200Z,4.70
2023-04-22T04:38:44.201Z,4.75
2023-04-22T04:39:44.279Z,4.67
2023-04-22T04:40:44.294Z,4.60
2023-04-22T04:41:44.371Z,4.67
2023-04-22T04:42:44.400Z,4.77
2023-04-22T04:43:44.453Z,4.61
2023-04-22T04:44:44.532Z,4.64
2023-04-22T04:45:46.208Z,4.74
2023-04-22T04:46:44.536Z,4.70
2023-04-22T04:47:44.548Z,4.63
2023-04-22T04:48:44.532Z,4.62
2023-04-22T04:49:44.524Z,4.66
2023-04-22T04:50:44.506Z,4.70
2023-04-22T04:51:44.503Z,4.67
2023-04-22T04:52:44.492Z,4.65
2023-04-22T04:53:44.468Z,4.60
2023-04-22T04:54:44.468Z,4.64
2023-04-22T04:55:44.493Z,4.55
2023-04-22T04:56:44.471Z,4.55
2023-04-22T04:57:44.470Z,4.60
2023-04-22T04:58:44.471Z,4.60
2023-04-22T04:59:44.447Z,4.62
2023-04-22T05:00:44.421Z,4.60
2023-04-22T05:01:44.495Z,4.52
2023-04-22T05:02:44.527Z,4.55
2023-04-22T05:03:44.527Z,4.47
2023-04-22T05:04:44.491Z,4.49
2023-04-22T05:05:44.383Z,4.50
2023-04-22T05:06:44.410Z,4.53
2023-04-22T05:07:44.373Z,4.52
2023-04-22T05:08:44.371Z,4.48
2023-04-22T05:09:44.349Z,4.46
2023-04-22T05:10:44.353Z,4.45
2023-04-22T05:11:44.351Z,4.50
2023-04-22T05:12:44.355Z,4.50
2023-04-22T05:13:44.343Z,4.42
2023-04-22T05:14:44.350Z,4.42
2023-04-22T05:15:44.339Z,4.37
2023-04-22T05:16:44.364Z,4.38
2023-04-22T05:17:44.357Z,4.47
2023-04-22T05:18:44.331Z,4.39
2023-04-22T05:19:44.302Z,4.37
2023-04-22T05:20:44.295Z,4.48
2023-04-22T05:21:44.308Z,4.39
2023-04-22T05:22:44.261Z,4.35
2023-04-22T05:23:44.301Z,4.41
2023-04-22T05:24:44.322Z,4.37
2023-04-22T05:25:44.378Z,4.33
2023-04-22T05:26:44.415Z,4.30
2023-04-22T05:27:44.432Z,4.34
2023-04-22T05:28:44.462Z,4.38
2023-04-22T05:29:44.516Z,4.30
2023-04-22T05:30:44.582Z,4.33
2023-04-22T05:31:44.662Z,4.34
2023-04-22T05:32:44.644Z,4.31
2023-04-22T05:33:44.671Z,4.33
2023-04-22T05:34:44.732Z,4.31
2023-04-22T05:35:44.768Z,4.29
2023-04-22T05:36:44.785Z,4.27
2023-04-22T05:37:44.855Z,4.25
2023-04-22T05:38:44.884Z,4.27
2023-04-22T05:39:44.919Z,4.31
2023-04-22T05:40:44.975Z,4.28
2023-04-22T05:41:46.980Z,4.30
2023-04-22T05:42:45.067Z,4.22
2023-04-22T05:43:45.072Z,4.19
2023-04-22T05:44:45.128Z,4.29
2023-04-22T05:45:45.220Z,4.21
2023-04-22T05:46:45.201Z,4.27
2023-04-22T05:47:45.267Z,4.16
2023-04-22T05:48:45.250Z,4.21
2023-04-22T05:49:45.306Z,4.18
2023-04-22T05:50:45.417Z,4.12
2023-04-22T05:51:45.375Z,4.12
2023-04-22T05:52:45.422Z,4.18
2023-04-22T05:53:45.454Z,4.22
2023-04-22T05:54:45.530Z,4.16
2023-04-22T05:55:45.534Z,4.17
2023-04-22T05:56:45.588Z,4.07
2023-04-22T05:57:45.612Z,4.05
2023-04-22T05:58:45.668Z,4.14
2023-04-22T05:59:45.700Z,4.11
2023-04-22T06:00:45.750Z,4.05
2023-04-22T06:01:45.777Z,4.05
2023-04-22T06:02:45.977Z,4.14
2023-04-22T06:03:46.042Z,4.04
2023-04-22T06:04:46.056Z,4.02
2023-04-22T06:05:45.948Z,4.02
2023-04-22T06:06:45.936Z,3.96
2023-04-22T06:07:45.958Z,4.02
2023-04-22T06:08:46.005Z,3.98
2023-04-22T06:09:46.061Z,3.99
2023-04-22T06:10:46.114Z,3.98
2023-04-22T06:11:46.206Z,4.07
2023-04-22T06:12:46.169Z,4.02
2023-04-22T06:13:46.188Z,4.03
2023-04-22T06:14:46.297Z,3.98
2023-04-22T06:15:46.307Z,3.93
2023-04-22T06:16:46.318Z,3.97
2023-04-22T06:17:46.431Z,3.89
2023-04-22T06:18:46.439Z,3.86
2023-04-22T06:19:46.461Z,3.96
2023-04-22T06:20:46.914Z,3.89
2023-04-22T06:21:46.520Z,3.91
2023-04-22T06:22:46.614Z,3.89
2023-04-22T06:23:46.633Z,3.90
2023-04-22T06:24:48.189Z,3.95
2023-04-22T06:25:46.702Z,3.83
2023-04-22T06:26:46.737Z,3.96
2023-04-22T06:27:46.808Z,3.88
2023-04-22T06:28:46.780Z,3.87
2023-04-22T06:29:46.864Z,3.84
2023-04-22T06:30:46.870Z,3.88
2023-04-22T06:31:47.023Z,3.83
2023-04-22T06:32:47.020Z,3.83
2023-04-22T06:33:46.982Z,3.87
2023-04-22T06:34:47.029Z,3.81
2023-04-22T06:35:47.088Z,3.94
2023-04-22T06:36:47.076Z,3.90
2023-04-22T06:37:47.153Z,3.79
2023-04-22T06:38:47.173Z,3.77
2023-04-22T06:39:47.222Z,3.81
2023-04-22T06:40:47.282Z,3.79
2023-04-22T06:41:47.269Z,3.75
2023-04-22T06:42:47.325Z,3.76
2023-04-22T06:43:47.360Z,3.75
2023-04-22T06:44:47.429Z,3.78
2023-04-22T06:45:47.421Z,3.77
2023-04-22T06:46:47.466Z,3.77
2023-04-22T06:47:47.591Z,3.74
2023-04-22T06:48:47.561Z,3.77
2023-04-22T06:49:47.609Z,3.72
2023-04-22T06:50:47.646Z,3.72
2023-04-22T06:51:47.688Z,3.76
2023-04-22T06:52:47.749Z,3.71
2023-04-22T06:53:47.794Z,3.68
2023-04-22T06:54:47.807Z,3.75
2023-04-22T06:55:47.831Z,3.73
2023-04-22T06:56:47.893Z,3.77
2023-04-22T06:57:47.922Z,3.72
2023-04-22T06:58:47.975Z,3.67
2023-04-22T06:59:47.995Z,3.65
2023-04-22T07:00:48.039Z,3.69
2023-04-22T07:01:48.084Z,3.72
2023-04-22T07:02:48.207Z,3.71
2023-04-22T07:03:48.239Z,3.69
2023-04-22T07:04:48.164Z,3.68
2023-04-22T07:05:48.185Z,3.62
2023-04-22T07:06:48.204Z,3.67
2023-04-22T07:07:48.267Z,3.67
2023-04-22T07:08:48.300Z,3.64
2023-04-22T07:09:48.351Z,3.64
2023-04-22T07:10:48.390Z,3.62
2023-04-22T07:11:48.472Z,3.65
2023-04-22T07:12:48.442Z,3.63
2023-04-22T07:13:48.478Z,3.58
2023-04-22T07:14:48.524Z,3.60
2023-04-22T07:15:48.564Z,3.58
2023-04-22T07:16:48.633Z,3.67
2023-04-22T07:17:48.736Z,3.58
2023-04-22T07:18:48.711Z,3.57
2023-04-22T07:19:48.762Z,3.54
2023-04-22T07:20:48.783Z,3.58
2023-04-22T07:21:48.783Z,3.57
2023-04-22T07:22:48.847Z,3.50
2023-04-22T07:23:48.903Z,3.47
2023-04-22T07:24:48.886Z,3.57
2023-04-22T07:25:48.945Z,3.58
2023-04-22T07:26:49.989Z,3.51
2023-04-22T07:27:48.999Z,3.50
2023-04-22T07:28:49.018Z,3.41
2023-04-22T07:29:49.134Z,3.53
2023-04-22T07:30:49.110Z,3.53
2023-04-22T07:31:49.186Z,3.45
2023-04-22T07:32:49.252Z,3.49
2023-04-22T07:33:49.268Z,3.45
2023-04-22T07:34:49.283Z,3.50
2023-04-22T07:35:49.313Z,3.45
2023-04-22T07:36:49.349Z,3.46
2023-04-22T07:37:49.371Z,3.51
2023-04-22T07:38:49.453Z,3.42
2023-04-22T07:39:49.489Z,3.39
2023-04-22T07:40:49.502Z,3.43
2023-04-22T07:41:49.520Z,3.43
2023-04-22T07:42:49.553Z,3.42
2023-04-22T07:43:49.574Z,3.33
2023-04-22T07:44:49.640Z,3.41
2023-04-22T07:45:49.676Z,3.44
2023-04-22T07:46:49.756Z,3.37
2023-04-22T07:47:49.769Z,3.40
2023-04-22T07:48:49.821Z,3.42
2023-04-22T07:49:49.844Z,3.34
2023-04-22T07:50:49.887Z,3.36
2023-04-22T07:51:49.903Z,3.28
2023-04-22T07:52:49.928Z,3.33
2023-04-22T07:53:49.948Z,3.27
2023-04-22T07:54:50.014Z,3.27
2023-04-22T07:55:50.026Z,3.18
2023-04-22T07:56:50.072Z,3.23
2023-04-22T07:57:50.103Z,3.26
2023-04-22T07:58:50.127Z,3.29
2023-04-22T07:59:50.211Z,3.20
2023-04-22T08:00:50.255Z,3.22
2023-04-22T08:01:50.287Z,3.18
2023-04-22T08:02:50.409Z,3.23
2023-04-22T08:03:50.549Z,3.28
2023-04-22T08:04:50.449Z,3.19
2023-04-22T08:05:50.406Z,3.19
2023-04-22T08:06:50.476Z,3.19
2023-04-22T08:07:50.459Z,3.23
2023-04-22T08:08:50.480Z,3.16
2023-04-22T08:09:50.533Z,3.19
2023-04-22T08:10:50.553Z,3.26
2023-04-22T08:11:50.662Z,3.20
2023-04-22T08:12:50.640Z,3.22
2023-04-22T08:13:50.682Z,3.17
2023-04-22T08:14:50.709Z,3.21
2023-04-22T08:15:50.753Z,3.17
2023-04-22T08:16:50.792Z,3.12
2023-04-22T08:17:50.877Z,3.18
2023-04-22T08:18:50.824Z,3.19
2023-04-22T08:19:50.891Z,3.15
2023-04-22T08:20:50.900Z,3.15
2023-04-22T08:21:50.970Z,3.16
2023-04-22T08:22:50.967Z,3.17
2023-04-22T08:23:51.007Z,3.10
2023-04-22T08:24:51.028Z,3.07
2023-04-22T08:25:51.060Z,3.19
2023-04-22T08:26:51.076Z,3.15
2023-04-22T08:27:51.093Z,3.15
2023-04-22T08:28:51.139Z,3.16
2023-04-22T08:29:51.186Z,3.12
2023-04-22T08:30:51.202Z,3.11
2023-04-22T08:31:51.256Z,3.12
2023-04-22T08:32:51.285Z,3.08
2023-04-22T08:33:51.315Z,3.10
2023-04-22T08:34:51.979Z,3.07
2023-04-22T08:35:51.320Z,3.10
2023-04-22T08:36:51.293Z,3.09
2023-04-22T08:37:51.348Z,3.07
2023-04-22T08:38:51.335Z,3.06
2023-04-22T08:39:51.273Z,3.07
2023-04-22T08:40:51.296Z,3.11
2023-04-22T08:41:51.255Z,3.05
2023-04-22T08:42:51.289Z,3.06
2023-04-22T08:43:51.259Z,3.05
2023-04-22T08:44:51.241Z,3.11
2023-04-22T08:45:51.243Z,3.04
2023-04-22T08:46:51.318Z,3.08
2023-04-22T08:47:51.265Z,3.03
2023-04-22T08:48:51.283Z,3.06
2023-04-22T08:49:51.225Z,3.01
2023-04-22T08:50:51.224Z,3.02
2023-04-22T08:51:51.250Z,3.00
2023-04-22T08:52:51.210Z,3.03
2023-04-22T08:53:51.211Z,3.02
2023-04-22T08:54:51.193Z,2.99
2023-04-22T08:55:51.164Z,2.98
2023-04-22T08:56:51.176Z,3.02
2023-04-22T08:57:51.150Z,3.01
2023-04-22T08:58:51.142Z,3.02
2023-04-22T08:59:51.159Z,2.99
2023-04-22T09:00:51.149Z,3.00
2023-04-22T09:01:51.176Z,2.98
2023-04-22T09:02:51.194Z,2.98
2023-04-22T09:03:51.181Z,2.95
2023-04-22T09:04:51.107Z,2.92
2023-04-22T09:05:51.103Z,2.97
2023-04-22T09:06:51.108Z,2.98
2023-04-22T09:07:51.072Z,2.97
2023-04-22T09:08:51.089Z,2.97
2023-04-22T09:09:51.070Z,2.92
2023-04-22T09:10:51.067Z,2.95
2023-04-22T09:11:51.067Z,2.93
2023-04-22T09:12:51.057Z,2.95
2023-04-22T09:13:51.062Z,2.99
2023-04-22T09:14:51.079Z,2.96
2023-04-22T09:15:51.014Z,2.98
2023-04-22T09:16:51.205Z,2.91
2023-04-22T09:17:51.102Z,2.92
2023-04-22T09:18:51.033Z,2.91
2023-04-22T09:19:51.020Z,2.83
2023-04-22T09:20:50.991Z,2.92
2023-04-22T09:21:53.621Z,2.86
2023-04-22T09:22:50.977Z,2.86
2023-04-22T09:23:51.017Z,2.87
2023-04-22T09:24:50.945Z,2.87
2023-04-22T09:25:51.006Z,2.92
2023-04-22T09:26:50.993Z,2.91
2023-04-22T09:27:50.986Z,2.94
2023-04-22T09:28:50.979Z,2.91
2023-04-22T09:29:50.975Z,2.95
2023-04-22T09:30:50.927Z,2.91
2023-04-22T09:31:50.995Z,2.92
2023-04-22T09:32:50.930Z,2.93
2023-04-22T09:33:50.922Z,2.84
2023-04-22T09:34:50.926Z,2.90
2023-04-22T09:35:50.907Z,2.81
2023-04-22T09:36:50.879Z,2.89
2023-04-22T09:37:50.921Z,2.89
2023-04-22T09:38:50.898Z,2.80
2023-04-22T09:39:50.841Z,2.84
2023-04-22T09:40:50.877Z,2.85
2023-04-22T09:41:50.876Z,2.90
2023-04-22T09:42:50.837Z,2.86
2023-04-22T09:43:50.839Z,2.92
2023-04-22T09:44:50.819Z,2.84
2023-04-22T09:45:50.835Z,2.88
2023-04-22T09:46:50.827Z,2.80
2023-04-22T09:47:50.825Z,2.78
2023-04-22T09:48:50.821Z,2.81
2023-04-22T09:49:50.819Z,2.87
2023-04-22T09:50:50.793Z,2.83
2023-04-22T09:51:50.787Z,2.78
2023-04-22T09:52:50.845Z,2.81
2023-04-22T09:53:50.794Z,2.85
2023-04-22T09:54:50.767Z,2.79
2023-04-22T09:55:50.745Z,2.80
2023-04-22T09:56:50.758Z,2.76
2023-04-22T09:57:50.751Z,2.82
2023-04-22T09:58:50.765Z,2.82
2023-04-22T09:59:50.719Z,2.80
2023-04-22T10:00:50.802Z,2.75
2023-04-22T10:01:50.750Z,2.76
2023-04-22T10:02:50.847Z,2.81
2023-04-22T10:03:50.714Z,2.78
2023-04-22T10:04:50.701Z,2.84
2023-04-22T10:05:50.704Z,2.80
2023-04-22T10:06:50.708Z,2.78
2023-04-22T10:07:50.696Z,2.84
2023-04-22T10:08:50.651Z,2.83
2023-04-22T10:09:50.654Z,2.80
2023-04-22T10:10:50.653Z,2.80
2023-04-22T10:11:50.662Z,2.88
2023-04-22T10:12:50.692Z,2.74
2023-04-22T10:13:50.623Z,2.81
2023-04-22T10:14:50.602Z,2.84
2023-04-22T10:15:50.652Z,2.78
2023-04-22T10:16:50.661Z,2.78
2023-04-22T10:17:50.649Z,2.84
2023-04-22T10:18:50.611Z,2.81
2023-04-22T10:19:50.593Z,2.83
2023-04-22T10:20:50.567Z,2.84
2023-04-22T10:21:50.548Z,2.77
2023-04-22T10:22:50.548Z,2.87
2023-04-22T10:23:50.575Z,2.86
2023-04-22T10:24:50.590Z,2.83
2023-04-22T10:25:50.536Z,2.82
2023-04-22T10:26:50.594Z,2.79
2023-04-22T10:27:50.533Z,2.87
2023-04-22T10:28:50.513Z,2.80
2023-04-22T10:29:50.507Z,2.80
2023-04-22T10:30:50.617Z,2.82
2023-04-22T10:31:50.499Z,2.79
2023-04-22T10:32:50.520Z,2.85
2023-04-22T10:33:50.486Z,2.78
2023-04-22T10:34:50.463Z,2.85
2023-04-22T10:35:50.463Z,2.78
2023-04-22T10:36:50.498Z,2.81
2023-04-22T10:37:50.486Z,2.82
2023-04-22T10:38:50.477Z,2.82
2023-04-22T10:39:50.442Z,2.80
2023-04-22T10:40:50.444Z,2.78
2023-04-22T10:41:50.417Z,2.87
2023-04-22T10:42:50.429Z,2.83
2023-04-22T10:43:50.441Z,2.86
2023-04-22T10:44:50.440Z,2.90
2023-04-22T10:45:50.473Z,2.86
2023-04-22T10:46:50.474Z,2.93
2023-04-22T10:47:50.536Z,2.85
2023-04-22T10:48:50.478Z,2.88
2023-04-22T10:49:50.533Z,2.88
2023-04-22T10:50:50.518Z,2.91
2023-04-22T10:51:50.994Z,2.91
2023-04-22T10:52:50.594Z,2.82
2023-04-22T10:53:50.614Z,2.92
2023-04-22T10:54:50.593Z,2.88
2023-04-22T10:55:50.594Z,2.85
2023-04-22T10:56:57.557Z,2.81
2023-04-22T10:57:51.625Z,2.81
2023-04-22T10:58:50.623Z,2.83
2023-04-22T10:59:50.708Z,2.83
2023-04-22T11:00:53.954Z,2.90
2023-04-22T11:01:50.703Z,2.82
2023-04-22T11:02:50.713Z,2.83
2023-04-22T11:03:50.665Z,2.84
2023-04-22T11:04:50.602Z,2.82
2023-04-22T11:05:50.688Z,2.86
2023-04-22T11:06:50.583Z,2.94
2023-04-22T11:07:50.561Z,2.89
2023-04-22T11:08:50.627Z,2.87
2023-04-22T11:09:50.558Z,2.90
2023-04-22T11:10:50.569Z,2.86
2023-04-22T11:11:50.539Z,2.91
2023-04-22T11:12:50.546Z,2.82
2023-04-22T11:13:50.828Z,2.87
2023-04-22T11:14:50.534Z,2.91
2023-04-22T11:15:50.537Z,2.92
2023-04-22T11:16:50.620Z,2.90
2023-04-22T11:17:50.529Z,2.90
2023-04-22T11:18:50.492Z,2.84
2023-04-22T11:19:50.542Z,2.91
2023-04-22T11:20:50.502Z,2.84
2023-04-22T11:21:51.303Z,2.92
2023-04-22T11:22:50.495Z,2.89
2023-04-22T11:23:50.442Z,2.82
2023-04-22T11:24:50.461Z,2.91
2023-04-22T11:25:50.427Z,2.89
2023-04-22T11:26:50.598Z,2.87
2023-04-22T11:27:50.457Z,2.85
2023-04-22T11:28:50.421Z,2.82
2023-04-22T11:29:50.442Z,2.86
2023-04-22T11:30:50.455Z,2.81
2023-04-22T11:31:50.481Z,2.85
2023-04-22T11:32:50.504Z,2.85
2023-04-22T11:33:50.478Z,2.86
2023-04-22T11:34:50.403Z,2.77
2023-04-22T11:35:50.450Z,2.84
2023-04-22T11:36:50.381Z,2.86
2023-04-22T11:37:50.373Z,2.86
2023-04-22T11:38:50.364Z,2.83
2023-04-22T11:40:13.163Z,2.86
2023-04-22T11:40:51.344Z,2.87
2023-04-22T11:41:50.359Z,2.87
2023-04-22T11:42:50.401Z,2.85
2023-04-22T11:43:50.322Z,2.86
2023-04-22T11:44:50.332Z,2.87
2023-04-22T11:45:50.326Z,2.85
2023-04-22T11:46:50.353Z,2.87
2023-04-22T11:47:50.367Z,2.86
2023-04-22T11:48:50.298Z,2.88
2023-04-22T11:49:50.291Z,2.82
2023-04-22T11:50:50.293Z,2.85
2023-04-22T11:51:50.311Z,2.87
2023-04-22T11:52:50.258Z,2.85
2023-04-22T11:53:50.311Z,2.80
2023-04-22T11:54:50.283Z,2.81
2023-04-22T11:55:50.222Z,2.74
2023-04-22T11:56:50.255Z,2.74
2023-04-22T11:57:50.226Z,2.78
2023-04-22T11:58:50.220Z,2.79
2023-04-22T11:59:50.241Z,2.82
2023-04-22T12:00:50.249Z,2.79
2023-04-22T12:01:50.238Z,2.82
2023-04-22T12:02:50.334Z,2.76
2023-04-22T12:03:50.281Z,2.77
2023-04-22T12:04:50.205Z,2.83
2023-04-22T12:05:50.309Z,2.76
2023-04-22T12:06:50.205Z,2.76
2023-04-22T12:07:50.216Z,2.78
2023-04-22T12:08:50.220Z,2.79
2023-04-22T12:09:50.268Z,2.75
2023-04-22T12:10:50.250Z,2.72
2023-04-22T12:11:50.244Z,2.74
2023-04-22T12:12:50.304Z,2.77
2023-04-22T12:13:50.289Z,2.74
2023-04-22T12:14:50.270Z,2.72
2023-04-22T12:15:50.280Z,2.72
2023-04-22T12:16:50.352Z,2.76
2023-04-22T12:17:50.387Z,2.75
2023-04-22T12:18:50.318Z,2.80
2023-04-22T12:19:50.346Z,2.73
2023-04-22T12:20:50.353Z,2.72
2023-04-22T12:21:50.329Z,2.75
2023-04-22T12:22:50.391Z,2.71
2023-04-22T12:23:50.348Z,2.66
2023-04-22T12:24:50.367Z,2.72
2023-04-22T12:25:50.386Z,2.69
2023-04-22T12:26:50.403Z,2.68
2023-04-22T12:27:50.409Z,2.67
2023-04-22T12:28:50.433Z,2.67
2023-04-22T12:29:50.432Z,2.73
2023-04-22T12:30:50.456Z,2.65
2023-04-22T12:31:50.471Z,2.64
2023-04-22T12:32:50.457Z,2.67
2023-04-22T12:33:50.506Z,2.67
2023-04-22T12:34:50.456Z,2.71
2023-04-22T12:35:50.499Z,2.68
2023-04-22T12:36:50.531Z,2.72
2023-04-22T12:37:51.263Z,2.68
2023-04-22T12:38:50.573Z,2.74
2023-04-22T12:39:50.671Z,2.65
2023-04-22T12:40:50.647Z,2.66
2023-04-22T12:41:50.627Z,2.73
2023-04-22T12:42:50.719Z,2.70
2023-04-22T12:43:50.674Z,2.73
2023-04-22T12:44:50.699Z,2.71
2023-04-22T12:45:50.724Z,2.62
2023-04-22T12:46:50.821Z,2.71
2023-04-22T12:47:50.737Z,2.62
2023-04-22T12:48:50.776Z,2.69
2023-04-22T12:49:50.805Z,2.64
2023-04-22T12:50:50.821Z,2.64
2023-04-22T12:51:50.850Z,2.66
2023-04-22T12:52:50.871Z,2.65
2023-04-22T12:53:50.890Z,2.64
2023-04-22T12:54:50.988Z,2.60
2023-04-22T12:55:50.974Z,2.67
2023-04-22T12:56:51.099Z,2.63
2023-04-22T12:57:51.052Z,2.63
2023-04-22T12:58:51.059Z,2.69
2023-04-22T12:59:51.124Z,2.63
2023-04-22T13:00:51.107Z,2.66
2023-04-22T13:01:51.145Z,2.72
2023-04-22T13:02:51.226Z,2.65
2023-04-22T13:03:51.378Z,2.63
2023-04-22T13:04:51.198Z,2.60
2023-04-22T13:05:52.090Z,2.66
2023-04-22T13:06:51.278Z,2.64
2023-04-22T13:08:05.868Z,2.58
2023-04-22T13:08:52.239Z,2.59
2023-04-22T13:09:51.250Z,2.60
2023-04-22T13:10:51.258Z,2.60
2023-04-22T13:11:51.246Z,2.61
2023-04-22T13:12:51.194Z,2.62
2023-04-22T13:13:51.200Z,2.66
2023-04-22T13:14:51.217Z,2.61
2023-04-22T13:15:51.201Z,2.62
2023-04-22T13:16:51.352Z,2.62
2023-04-22T13:17:51.632Z,2.62
2023-04-22T13:18:51.166Z,2.61